createdAt,value
2023-03-24T00:01:19.662Z,13.97
2023-03-24T00:03:49.256Z,13.97
2023-03-24T00:06:18.851Z,13.95
2023-03-24T00:08:48.155Z,14.03
2023-03-24T00:11:21.423Z,14.07
2023-03-24T00:13:50.533Z,14.04
2023-03-24T00:16:20.112Z,14.03
2023-03-24T00:18:53.481Z,14.01
2023-03-24T00:21:25.146Z,13.96
2023-03-24T00:23:55.571Z,13.94
2023-03-24T00:26:25.855Z,13.97
2023-03-24T00:28:55.642Z,13.91
2023-03-24T00:31:24.579Z,13.67
2023-03-24T00:33:53.988Z,13.46
2023-03-24T00:36:24.299Z,13.32
2023-03-24T00:38:52.927Z,13.37
2023-03-24T00:41:21.431Z,13.50
2023-03-24T00:43:51.596Z,13.54
2023-03-24T00:46:28.476Z,13.62
2023-03-24T00:49:02.231Z,13.50
2023-03-24T00:51:32.381Z,13.26
2023-03-24T00:54:01.868Z,13.08
2023-03-24T00:56:34.001Z,13.14
2023-03-24T00:59:03.810Z,13.27
2023-03-24T01:01:36.635Z,13.32
2023-03-24T01:04:06.921Z,13.42
2023-03-24T01:06:37.572Z,13.55
2023-03-24T01:09:07.204Z,13.62
2023-03-24T01:11:40.225Z,13.67
2023-03-24T01:14:11.224Z,13.68
2023-03-24T01:16:39.600Z,13.59
2023-03-24T01:19:09.250Z,13.48
2023-03-24T01:21:38.527Z,13.57
2023-03-24T01:24:07.769Z,13.50
2023-03-24T01:26:36.071Z,13.57
2023-03-24T01:29:04.209Z,13.53
2023-03-24T01:31:33.793Z,13.47
2023-03-24T01:34:02.135Z,13.43
2023-03-24T01:36:30.316Z,13.50
2023-03-24T01:38:58.541Z,13.51
2023-03-24T01:41:28.792Z,13.40
2023-03-24T01:43:56.836Z,13.33
2023-03-24T01:46:26.534Z,13.40
2023-03-24T01:49:01.269Z,13.43
2023-03-24T01:51:34.816Z,13.48
2023-03-24T01:54:05.994Z,13.55
2023-03-24T01:56:38.120Z,13.59
2023-03-24T01:59:11.318Z,13.62
2023-03-24T02:02:02.715Z,13.65
2023-03-24T02:04:54.199Z,13.68
2023-03-24T02:07:33.706Z,13.70
2023-03-24T02:10:04.503Z,13.64
2023-03-24T02:12:33.959Z,13.64
2023-03-24T02:15:05.946Z,13.69
2023-03-24T02:17:51.782Z,13.67
2023-03-24T02:20:51.327Z,13.64
2023-03-24T02:23:56.665Z,13.61
2023-03-24T02:26:47.223Z,13.48
2023-03-24T02:29:45.377Z,13.46
2023-03-24T02:32:48.604Z,13.50
2023-03-24T02:35:45.273Z,13.57
2023-03-24T02:38:31.051Z,13.57
2023-03-24T02:41:07.070Z,13.58
2023-03-24T02:43:46.749Z,13.60
2023-03-24T02:46:24.499Z,13.56
2023-03-24T02:49:07.172Z,13.44
2023-03-24T02:51:41.025Z,13.48
2023-03-24T02:54:13.550Z,13.54
2023-03-24T02:56:48.202Z,13.50
2023-03-24T02:59:38.371Z,13.46
2023-03-24T03:02:23.098Z,13.43
2023-03-24T03:05:06.086Z,13.44
2023-03-24T03:07:37.480Z,13.41
2023-03-24T03:10:14.089Z,13.40
2023-03-24T03:12:49.327Z,13.40
2023-03-24T03:15:24.168Z,13.39
2023-03-24T03:17:58.979Z,13.35
2023-03-24T03:20:34.820Z,13.30
2023-03-24T03:23:08.529Z,13.36
2023-03-24T03:25:42.321Z,13.38
2023-03-24T03:28:17.888Z,13.39
2023-03-24T03:30:51.789Z,13.36
2023-03-24T03:33:25.117Z,13.33
2023-03-24T03:35:59.284Z,13.33
2023-03-24T03:38:34.228Z,13.32
2023-03-24T03:41:05.703Z,13.31
2023-03-24T03:43:38.844Z,13.29
2023-03-24T03:46:08.813Z,13.28
2023-03-24T03:48:40.377Z,13.22
2023-03-24T03:51:14.333Z,13.20
2023-03-24T03:53:53.356Z,13.21
2023-03-24T03:56:24.840Z,13.23
2023-03-24T03:59:06.589Z,13.17
2023-03-24T04:01:37.606Z,13.09
2023-03-24T04:05:03.271Z,13.07
2023-03-24T04:08:03.538Z,12.99
2023-03-24T04:11:19.261Z,12.84
2023-03-24T04:14:29.747Z,12.75
2023-03-24T04:17:47.072Z,12.92
2023-03-24T04:20:32.614Z,13.06
2023-03-24T04:23:09.475Z,13.15
2023-03-24T04:25:56.662Z,13.26
2023-03-24T04:28:31.832Z,13.31
2023-03-24T04:31:07.406Z,13.33
2023-03-24T04:33:43.115Z,13.23
2023-03-24T04:36:19.142Z,13.10
2023-03-24T04:39:17.111Z,12.95
2023-03-24T04:41:52.731Z,12.87
2023-03-24T04:44:28.081Z,12.94
2023-03-24T04:47:17.931Z,13.01
2023-03-24T04:50:02.714Z,13.08
2023-03-24T04:52:31.312Z,13.16
2023-03-24T04:55:03.058Z,13.18
2023-03-24T04:57:32.161Z,13.16
2023-03-24T05:00:09.013Z,13.18
2023-03-24T05:02:38.425Z,13.20
2023-03-24T05:05:12.765Z,13.28
2023-03-24T05:07:45.089Z,13.26
2023-03-24T05:10:16.687Z,13.21
2023-03-24T05:12:50.746Z,13.01
2023-03-24T05:15:19.178Z,13.04
2023-03-24T05:17:53.092Z,13.13
2023-03-24T05:20:25.506Z,13.21
2023-03-24T05:22:53.571Z,13.26
2023-03-24T05:25:21.696Z,13.30
2023-03-24T05:27:50.935Z,13.30
2023-03-24T05:30:26.937Z,13.37
2023-03-24T05:33:03.435Z,13.43
2023-03-24T05:35:31.682Z,13.46
2023-03-24T05:37:59.721Z,13.49
2023-03-24T05:40:27.884Z,13.44
2023-03-24T05:43:16.393Z,13.41
2023-03-24T05:45:51.653Z,13.37
2023-03-24T05:48:30.562Z,13.40
2023-03-24T05:51:16.943Z,13.48
2023-03-24T05:53:46.820Z,13.48
2023-03-24T05:56:25.615Z,13.52
2023-03-24T05:59:14.062Z,13.35
2023-03-24T06:02:05.290Z,13.38
2023-03-24T06:04:57.558Z,13.48
2023-03-24T06:07:26.665Z,13.59
2023-03-24T06:09:58.197Z,13.67
2023-03-24T06:12:27.530Z,13.79
2023-03-24T06:14:59.171Z,13.89
2023-03-24T06:17:30.564Z,13.92
2023-03-24T06:20:06.110Z,13.99
2023-03-24T06:22:45.335Z,14.06
2023-03-24T06:25:20.390Z,14.13
2023-03-24T06:28:06.482Z,14.17
2023-03-24T06:30:37.015Z,14.15
2023-03-24T06:33:08.332Z,14.17
2023-03-24T06:35:38.509Z,14.24
2023-03-24T06:38:11.761Z,14.23
2023-03-24T06:40:41.112Z,14.24
2023-03-24T06:43:09.648Z,14.31
2023-03-24T06:45:40.617Z,14.43
2023-03-24T06:48:13.173Z,14.49
2023-03-24T06:50:42.900Z,14.52
2023-03-24T06:53:12.369Z,14.58
2023-03-24T06:55:40.826Z,14.68
2023-03-24T06:58:10.377Z,14.74
2023-03-24T07:00:57.446Z,14.76
2023-03-24T07:03:34.462Z,14.71
2023-03-24T07:06:30.730Z,14.76
2023-03-24T07:09:06.476Z,14.94
2023-03-24T07:11:34.482Z,15.01
2023-03-24T07:14:04.169Z,15.11
2023-03-24T07:16:34.264Z,15.09
2023-03-24T07:19:23.172Z,15.14
2023-03-24T07:22:09.794Z,15.10
2023-03-24T07:24:58.185Z,14.99
2023-03-24T07:27:59.727Z,14.96
2023-03-24T07:30:39.432Z,14.88
2023-03-24T07:33:10.880Z,14.75
2023-03-24T07:35:39.331Z,14.66
2023-03-24T07:38:10.131Z,14.68
2023-03-24T07:40:38.332Z,14.69
2023-03-24T07:43:06.989Z,14.65
2023-03-24T07:45:35.022Z,14.67
2023-03-24T07:48:03.544Z,14.67
2023-03-24T07:50:36.183Z,14.78
2023-03-24T07:53:12.088Z,14.88
2023-03-24T07:55:40.317Z,15.02
2023-03-24T07:58:14.288Z,15.08
2023-03-24T08:00:54.200Z,15.15
2023-03-24T08:03:29.741Z,15.19
2023-03-24T08:06:24.049Z,15.31
2023-03-24T08:08:54.451Z,15.45
2023-03-24T08:11:22.432Z,15.50
2023-03-24T08:13:50.300Z,15.66
2023-03-24T08:16:18.183Z,15.80
2023-03-24T08:18:46.319Z,15.95
2023-03-24T08:21:14.284Z,16.01
2023-03-24T08:23:42.121Z,16.03
2023-03-24T08:26:11.683Z,16.00
2023-03-24T08:28:39.683Z,16.06
2023-03-24T08:31:07.795Z,16.05
2023-03-24T08:33:36.526Z,16.01
2023-03-24T08:36:04.946Z,16.12
2023-03-24T08:38:32.887Z,16.17
2023-03-24T08:41:06.883Z,16.24
2023-03-24T08:43:37.646Z,16.30
2023-03-24T08:46:08.872Z,16.55
2023-03-24T08:48:40.612Z,16.79
2023-03-24T08:51:13.152Z,16.93
2023-03-24T08:53:41.356Z,17.02
2023-03-24T08:56:10.444Z,17.13
2023-03-24T08:58:39.716Z,17.29
2023-03-24T09:01:07.755Z,17.41
2023-03-24T09:03:35.977Z,17.50
2023-03-24T09:06:03.903Z,17.64
2023-03-24T09:08:31.861Z,17.76
2023-03-24T09:11:00.140Z,17.79
2023-03-24T09:13:28.141Z,17.84
2023-03-24T09:16:01.515Z,17.93
2023-03-24T09:18:30.361Z,18.01
2023-03-24T09:20:58.315Z,18.15
2023-03-24T09:23:29.114Z,18.29
2023-03-24T09:25:57.049Z,18.45
2023-03-24T09:28:25.355Z,18.52
2023-03-24T09:30:59.478Z,18.57
2023-03-24T09:33:29.562Z,18.62
2023-03-24T09:35:59.739Z,18.77
2023-03-24T09:38:28.923Z,18.85
2023-03-24T09:41:00.844Z,18.92
2023-03-24T09:43:34.617Z,18.96
2023-03-24T09:46:07.759Z,18.93
2023-03-24T09:48:41.314Z,18.92
2023-03-24T09:51:13.139Z,18.95
2023-03-24T09:53:47.603Z,18.95
2023-03-24T09:56:19.032Z,18.92
2023-03-24T09:58:51.169Z,18.91
2023-03-24T10:01:21.176Z,18.92
2023-03-24T10:03:49.151Z,18.88
2023-03-24T10:06:23.131Z,18.83
2023-03-24T10:08:58.886Z,18.77
2023-03-24T10:11:33.114Z,18.72
2023-03-24T10:14:15.076Z,18.68
2023-03-24T10:16:50.981Z,18.65
2023-03-24T10:19:30.860Z,18.66
2023-03-24T10:22:05.233Z,18.73
2023-03-24T10:24:42.264Z,18.84
2023-03-24T10:27:18.323Z,18.92
2023-03-24T10:29:48.674Z,18.90
2023-03-24T10:32:22.127Z,18.88
2023-03-24T10:34:55.835Z,18.97
2023-03-24T10:37:23.996Z,19.00
2023-03-24T10:39:52.532Z,19.00
2023-03-24T10:42:26.418Z,19.08
2023-03-24T10:44:54.610Z,19.18
2023-03-24T10:47:27.091Z,19.26
2023-03-24T10:49:58.022Z,19.36
2023-03-24T10:52:26.448Z,19.37
2023-03-24T10:54:56.204Z,19.34
2023-03-24T10:57:25.760Z,19.34
2023-03-24T10:59:57.342Z,19.30
2023-03-24T11:02:30.625Z,19.35
2023-03-24T11:05:02.288Z,19.41
2023-03-24T11:07:33.679Z,19.46
2023-03-24T11:10:07.124Z,19.55
2023-03-24T11:12:38.113Z,19.62
2023-03-24T11:15:22.092Z,19.64
2023-03-24T11:17:57.306Z,19.65
2023-03-24T11:20:33.053Z,19.71
2023-03-24T11:23:03.941Z,19.77
2023-03-24T11:25:34.830Z,19.78
2023-03-24T11:28:06.916Z,19.81
2023-03-24T11:30:36.898Z,19.86
2023-03-24T11:33:07.226Z,19.90
2023-03-24T11:35:41.796Z,19.93
2023-03-24T11:38:18.106Z,19.99
2023-03-24T11:40:58.256Z,20.02
2023-03-24T11:43:28.014Z,20.00
2023-03-24T11:46:02.365Z,20.01
2023-03-24T11:48:40.478Z,19.99
2023-03-24T11:51:12.550Z,19.97
2023-03-24T11:53:45.582Z,19.89
2023-03-24T11:56:22.192Z,19.84
2023-03-24T11:58:57.470Z,19.79
2023-03-24T12:01:31.265Z,19.70
2023-03-24T12:04:15.476Z,19.76
2023-03-24T12:06:55.594Z,19.78
2023-03-24T12:09:32.566Z,19.77
2023-03-24T12:12:32.014Z,19.80
2023-03-24T12:15:27.842Z,19.85
2023-03-24T12:18:08.797Z,19.90
2023-03-24T12:20:47.047Z,19.95
2023-03-24T12:23:21.342Z,19.98
2023-03-24T12:26:10.371Z,20.06
2023-03-24T12:28:53.693Z,20.12
2023-03-24T12:31:45.045Z,20.13
2023-03-24T12:34:35.443Z,20.16
2023-03-24T12:37:11.158Z,20.16
2023-03-24T12:39:49.058Z,20.17
2023-03-24T12:42:18.889Z,20.12
2023-03-24T12:45:13.480Z,20.14
2023-03-24T12:47:58.037Z,20.14
2023-03-24T12:50:37.542Z,20.13
2023-03-24T12:53:18.161Z,20.15
2023-03-24T12:55:52.444Z,20.18
2023-03-24T12:58:27.314Z,20.19
2023-03-24T13:01:04.609Z,20.21
2023-03-24T13:03:41.542Z,20.22
2023-03-24T13:06:17.747Z,20.18
2023-03-24T13:09:00.754Z,20.22
2023-03-24T13:11:35.871Z,20.22
2023-03-24T13:14:10.335Z,20.24
2023-03-24T13:16:41.082Z,20.27
2023-03-24T13:19:19.561Z,20.27
2023-03-24T13:21:48.871Z,20.24
2023-03-24T13:24:20.114Z,20.22
2023-03-24T13:26:56.154Z,20.23
2023-03-24T13:29:49.678Z,20.18
2023-03-24T13:32:30.152Z,20.21
2023-03-24T13:35:05.974Z,20.18
2023-03-24T13:37:37.473Z,20.07
2023-03-24T13:40:12.176Z,20.10
2023-03-24T13:42:46.345Z,20.04
2023-03-24T13:45:33.040Z,20.08
2023-03-24T13:48:07.854Z,20.06
2023-03-24T13:50:39.497Z,20.02
2023-03-24T13:53:14.939Z,20.01
2023-03-24T13:55:51.117Z,19.96
2023-03-24T13:58:22.039Z,19.98
2023-03-24T14:01:07.289Z,19.98
2023-03-24T14:03:37.623Z,19.94
2023-03-24T14:06:09.177Z,19.89
2023-03-24T14:08:55.995Z,19.92
2023-03-24T14:11:49.401Z,19.91
2023-03-24T14:14:23.221Z,19.90
2023-03-24T14:16:53.958Z,19.89
2023-03-24T14:19:27.516Z,19.87
2023-03-24T14:22:04.511Z,19.83
2023-03-24T14:24:32.931Z,19.84
2023-03-24T14:27:02.239Z,19.76
2023-03-24T14:29:50.676Z,19.76
2023-03-24T14:32:22.981Z,19.72
2023-03-24T14:34:54.052Z,19.69
2023-03-24T14:37:22.971Z,19.64
2023-03-24T14:39:52.132Z,19.58
2023-03-24T14:42:58.414Z,19.50
2023-03-24T14:45:41.251Z,19.41
2023-03-24T14:48:28.409Z,19.38
2023-03-24T14:51:02.014Z,19.32
2023-03-24T14:53:30.480Z,19.29
2023-03-24T14:55:59.224Z,19.20
2023-03-24T14:58:35.818Z,19.23
2023-03-24T15:01:07.888Z,19.18
2023-03-24T15:03:45.957Z,19.08
2023-03-24T15:06:15.989Z,19.03
2023-03-24T15:08:51.277Z,18.98
2023-03-24T15:11:23.046Z,18.92
2023-03-24T15:13:54.479Z,18.86
2023-03-24T15:16:25.157Z,18.79
2023-03-24T15:21:30.190Z,18.73
2023-03-24T15:24:01.037Z,18.70
2023-03-24T15:26:30.330Z,18.69
2023-03-24T15:29:02.027Z,18.66
2023-03-24T15:31:31.162Z,18.65
2023-03-24T15:34:07.638Z,18.60
2023-03-24T15:36:40.844Z,18.52
2023-03-24T15:39:20.811Z,18.56
2023-03-24T15:41:53.731Z,18.54
2023-03-24T15:44:27.444Z,18.51
2023-03-24T15:46:57.295Z,18.51
2023-03-24T15:49:27.913Z,18.49
2023-03-24T15:51:59.982Z,18.47
2023-03-24T15:54:30.774Z,18.44
2023-03-24T15:57:21.076Z,18.42
2023-03-24T15:59:52.310Z,18.39
2023-03-24T16:02:31.420Z,18.36
2023-03-24T16:05:11.011Z,18.33
2023-03-24T16:07:42.423Z,18.30
2023-03-24T16:10:32.404Z,18.24
2023-03-24T16:13:14.590Z,18.20
2023-03-24T16:15:46.064Z,18.18
2023-03-24T16:18:18.168Z,18.14
2023-03-24T16:20:46.256Z,18.13
2023-03-24T16:23:14.409Z,18.11
2023-03-24T16:25:42.329Z,18.10
2023-03-24T16:28:13.214Z,18.08
2023-03-24T16:30:44.623Z,18.06
2023-03-24T16:33:13.579Z,18.04
2023-03-24T16:35:41.535Z,18.02
2023-03-24T16:38:13.608Z,17.97
2023-03-24T16:40:44.767Z,17.93
2023-03-24T16:43:12.817Z,17.89
2023-03-24T16:45:40.705Z,17.86
2023-03-24T16:48:11.210Z,17.81
2023-03-24T16:50:41.042Z,17.69
2023-03-24T16:53:09.761Z,17.77
2023-03-24T16:55:38.629Z,17.75
2023-03-24T16:58:07.161Z,17.69
2023-03-24T17:00:38.278Z,17.64
2023-03-24T17:03:08.067Z,17.63
2023-03-24T17:05:41.742Z,17.59
2023-03-24T17:08:10.504Z,17.58
2023-03-24T17:10:38.723Z,17.56
2023-03-24T17:13:06.880Z,17.54
2023-03-24T17:15:34.710Z,17.49
2023-03-24T17:18:03.868Z,17.46
2023-03-24T17:20:31.960Z,17.42
2023-03-24T17:23:04.104Z,17.38
2023-03-24T17:25:32.236Z,17.36
2023-03-24T17:28:00.248Z,17.34
2023-03-24T17:30:30.202Z,17.31
2023-03-24T17:32:58.233Z,17.29
2023-03-24T17:35:26.562Z,17.29
2023-03-24T17:37:54.608Z,17.25
2023-03-24T17:40:23.808Z,17.25
2023-03-24T17:42:51.702Z,17.22
2023-03-24T17:45:20.583Z,17.17
2023-03-24T17:47:48.569Z,17.12
2023-03-24T17:50:16.719Z,17.00
2023-03-24T17:52:46.447Z,17.01
2023-03-24T17:55:16.115Z,16.96
2023-03-24T17:57:46.049Z,16.92
2023-03-24T18:00:16.474Z,16.91
2023-03-24T18:02:45.271Z,16.87
2023-03-24T18:05:15.800Z,16.86
2023-03-24T18:07:43.804Z,16.82
2023-03-24T18:10:11.778Z,16.80
2023-03-24T18:12:39.709Z,16.80
2023-03-24T18:15:10.481Z,16.73
2023-03-24T18:17:38.484Z,16.67
2023-03-24T18:20:10.792Z,16.44
2023-03-24T18:22:40.973Z,16.49
2023-03-24T18:25:10.816Z,16.44
2023-03-24T18:27:39.495Z,16.41
2023-03-24T18:30:11.467Z,16.33
2023-03-24T18:32:39.864Z,16.34
2023-03-24T18:35:10.174Z,16.34
2023-03-24T18:37:38.805Z,16.36
2023-03-24T18:40:08.998Z,16.35
2023-03-24T18:42:37.020Z,16.31
2023-03-24T18:45:06.001Z,16.32
2023-03-24T18:47:35.860Z,16.30
2023-03-24T18:50:04.551Z,16.29
2023-03-24T18:52:33.071Z,16.26
2023-03-24T18:55:02.396Z,16.28
2023-03-24T18:57:31.063Z,16.32
2023-03-24T19:00:00.294Z,16.40
2023-03-24T19:02:28.535Z,16.47
2023-03-24T19:04:57.897Z,16.38
2023-03-24T19:07:26.251Z,16.41
2023-03-24T19:09:55.324Z,16.41
2023-03-24T19:12:23.254Z,16.33
2023-03-24T19:14:54.066Z,16.35
2023-03-24T19:17:23.616Z,16.31
2023-03-24T19:19:51.729Z,16.28
2023-03-24T19:22:22.154Z,16.32
2023-03-24T19:24:50.676Z,16.36
2023-03-24T19:27:18.958Z,16.40
2023-03-24T19:29:47.495Z,16.44
2023-03-24T19:32:15.511Z,16.48
2023-03-24T19:34:43.392Z,16.48
2023-03-24T19:37:13.850Z,16.49
2023-03-24T19:39:43.087Z,16.47
2023-03-24T19:42:10.950Z,16.32
2023-03-24T19:44:38.835Z,16.14
2023-03-24T19:47:06.679Z,15.99
2023-03-24T19:49:34.545Z,15.96
2023-03-24T19:52:03.638Z,16.01
2023-03-24T19:54:31.576Z,16.08
2023-03-24T19:57:00.913Z,16.13
2023-03-24T19:59:29.002Z,16.16
2023-03-24T20:01:57.002Z,16.16
2023-03-24T20:04:25.941Z,16.10
2023-03-24T20:06:53.900Z,16.10
2023-03-24T20:09:21.742Z,16.08
2023-03-24T20:11:52.395Z,16.04
2023-03-24T20:14:21.670Z,16.01
2023-03-24T20:16:49.729Z,15.97
2023-03-24T20:19:17.743Z,15.96
2023-03-24T20:21:45.842Z,15.93
2023-03-24T20:24:14.710Z,15.81
2023-03-24T20:26:42.806Z,15.76
2023-03-24T20:29:10.709Z,15.75
2023-03-24T20:31:41.806Z,15.65
2023-03-24T20:34:10.830Z,15.64
2023-03-24T20:36:41.307Z,15.58
2023-03-24T20:39:09.632Z,15.58
2023-03-24T20:41:37.612Z,15.52
2023-03-24T20:44:06.038Z,15.55
2023-03-24T20:46:34.294Z,15.56
2023-03-24T20:49:03.963Z,15.59
2023-03-24T20:51:31.844Z,15.59
2023-03-24T20:53:59.716Z,15.59
2023-03-24T20:56:27.789Z,15.61
2023-03-24T20:58:55.637Z,15.63
2023-03-24T21:01:24.591Z,15.61
2023-03-24T21:03:54.593Z,15.60
2023-03-24T21:06:24.340Z,15.56
2023-03-24T21:08:54.307Z,15.58
2023-03-24T21:11:22.659Z,15.53
2023-03-24T21:13:50.728Z,15.41
2023-03-24T21:16:23.379Z,15.27
2023-03-24T21:18:51.340Z,15.15
2023-03-24T21:21:19.197Z,15.01
2023-03-24T21:23:48.431Z,14.98
2023-03-24T21:26:18.092Z,14.79
2023-03-24T21:28:46.678Z,14.67
2023-03-24T21:31:18.883Z,14.57
2023-03-24T21:33:47.101Z,14.49
2023-03-24T21:36:15.825Z,14.46
2023-03-24T21:38:44.340Z,14.40
2023-03-24T21:41:13.635Z,14.35
2023-03-24T21:43:42.153Z,14.32
2023-03-24T21:46:14.818Z,14.25
2023-03-24T21:48:51.295Z,14.24
2023-03-24T21:51:21.253Z,14.23
2023-03-24T21:53:49.156Z,14.21
2023-03-24T21:56:20.206Z,14.16
2023-03-24T21:58:48.231Z,14.18
2023-03-24T22:01:16.728Z,14.21
2023-03-24T22:03:46.414Z,14.20
2023-03-24T22:06:14.970Z,14.30
2023-03-24T22:08:44.207Z,14.39
2023-03-24T22:11:15.236Z,14.43
2023-03-24T22:13:44.539Z,14.53
2023-03-24T22:16:12.440Z,14.64
2023-03-24T22:18:40.380Z,14.76
2023-03-24T22:21:10.497Z,14.84
2023-03-24T22:23:42.454Z,14.80
2023-03-24T22:26:13.315Z,14.83
2023-03-24T22:28:42.107Z,14.90
2023-03-24T22:31:13.721Z,14.96
2023-03-24T22:33:42.042Z,14.99
2023-03-24T22:36:11.207Z,14.99
2023-03-24T22:38:39.222Z,14.99
2023-03-24T22:41:09.827Z,15.05
2023-03-24T22:43:39.356Z,14.99
2023-03-24T22:46:08.005Z,14.71
2023-03-24T22:48:39.342Z,14.44
2023-03-24T22:51:08.713Z,14.27
2023-03-24T22:53:37.037Z,14.25
2023-03-24T22:56:06.304Z,14.39
2023-03-24T22:58:35.610Z,14.50
2023-03-24T23:01:03.841Z,14.47
2023-03-24T23:03:31.897Z,14.62
2023-03-24T23:06:03.043Z,14.68
2023-03-24T23:08:32.307Z,14.70
2023-03-24T23:11:00.972Z,14.72
2023-03-24T23:13:30.835Z,14.77
2023-03-24T23:15:58.877Z,14.82
2023-03-24T23:18:26.834Z,14.85
2023-03-24T23:21:06.924Z,14.89
2023-03-24T23:23:35.022Z,14.90
2023-03-24T23:26:04.792Z,14.90
2023-03-24T23:28:33.141Z,14.85
2023-03-24T23:31:00.991Z,14.82
2023-03-24T23:33:29.358Z,14.84
2023-03-24T23:35:58.826Z,14.85
2023-03-24T23:38:28.369Z,14.87
2023-03-24T23:40:56.309Z,14.87
2023-03-24T23:43:24.201Z,14.87
2023-03-24T23:45:55.592Z,14.87
2023-03-24T23:48:23.524Z,14.92
2023-03-24T23:50:56.693Z,14.96
2023-03-24T23:53:24.796Z,14.97
2023-03-24T23:55:57.021Z,14.95
2023-03-24T23:58:25.469Z,14.84
